createdAt,value
2023-03-17T07:01:48.807Z,14.52
2023-03-17T07:06:51.643Z,18.20
2023-03-17T07:11:53.690Z,11.77
2023-03-17T07:16:55.762Z,14.10
2023-03-17T07:21:57.816Z,10.23
2023-03-17T07:27:00.290Z,9.77
2023-03-17T07:32:02.987Z,12.88
2023-03-17T07:37:07.060Z,11.52
2023-03-17T07:42:12.140Z,10.93
2023-03-17T07:47:14.800Z,14.25
2023-03-17T07:52:17.100Z,14.25
2023-03-17T07:57:19.224Z,10.60
2023-03-17T08:02:22.189Z,16.80
2023-03-17T08:07:24.481Z,16.33
2023-03-17T08:12:26.576Z,13.93
2023-03-17T08:17:28.666Z,17.60
2023-03-17T08:22:30.797Z,15.55
2023-03-17T08:27:33.989Z,14.18
2023-03-17T08:32:36.937Z,8.07
2023-03-17T08:37:39.057Z,10.95
2023-03-17T08:42:41.198Z,10.35
2023-03-17T08:47:43.292Z,6.13
2023-03-17T08:52:46.182Z,5.03
2023-03-17T08:57:48.729Z,5.25
2023-03-17T09:02:50.880Z,5.10
2023-03-17T09:07:53.618Z,5.53
2023-03-17T09:13:02.829Z,4.28
2023-03-17T09:18:05.803Z,6.22
2023-03-17T09:23:09.973Z,4.47
2023-03-17T09:28:12.964Z,12.35
2023-03-17T09:33:15.784Z,6.40
2023-03-17T09:38:17.864Z,4.87
2023-03-17T09:43:40.209Z,5.93
2023-03-17T09:49:01.890Z,4.20
2023-03-17T09:54:11.778Z,6.37
2023-03-17T09:59:34.234Z,5.43
2023-03-17T10:04:37.195Z,5.25
2023-03-17T10:09:47.377Z,3.53
2023-03-17T10:15:06.783Z,5.20
2023-03-17T10:20:16.001Z,3.95
2023-03-17T10:25:25.897Z,4.25
2023-03-17T10:30:33.583Z,4.10
2023-03-17T10:35:39.491Z,3.78
2023-03-17T10:40:45.353Z,7.62
2023-03-17T10:45:58.799Z,5.03
2023-03-17T10:51:05.859Z,5.27
2023-03-17T10:56:11.552Z,4.70
2023-03-17T11:01:36.899Z,4.72
2023-03-17T11:06:43.829Z,7.17
2023-03-17T11:11:48.518Z,6.07
2023-03-17T11:17:01.017Z,6.00
2023-03-17T11:22:31.027Z,4.77
2023-03-17T11:27:41.169Z,3.95
2023-03-17T11:32:56.494Z,5.15
2023-03-17T11:38:17.120Z,5.43
2023-03-17T11:43:37.370Z,4.90
2023-03-17T11:48:55.560Z,5.45
2023-03-17T11:54:34.956Z,5.80
2023-03-17T11:59:53.065Z,5.27
2023-03-17T12:05:01.261Z,4.78
2023-03-17T12:10:22.556Z,4.75
2023-03-17T12:15:39.908Z,4.30
2023-03-17T12:20:48.083Z,4.50
2023-03-17T12:25:59.825Z,4.28
2023-03-17T12:31:09.935Z,6.17
2023-03-17T12:36:15.513Z,6.03
2023-03-17T12:41:33.531Z,4.95
2023-03-17T12:46:47.515Z,5.65
2023-03-17T12:52:27.510Z,5.40
2023-03-17T12:57:38.609Z,5.05
2023-03-17T13:02:41.332Z,4.22
2023-03-17T13:07:56.296Z,11.13
2023-03-17T13:13:08.896Z,7.78
2023-03-17T13:18:13.912Z,4.43
2023-03-17T13:23:19.255Z,6.27
2023-03-17T13:28:41.977Z,4.23
2023-03-17T13:33:49.289Z,4.85
2023-03-17T13:39:24.952Z,6.90
2023-03-17T13:44:51.368Z,7.50
2023-03-17T13:50:00.747Z,9.18
2023-03-17T13:55:23.738Z,6.97
2023-03-17T14:00:27.832Z,6.30
2023-03-17T14:05:34.873Z,6.03
2023-03-17T14:10:37.316Z,4.97
2023-03-17T14:16:17.064Z,5.97
2023-03-17T14:21:25.223Z,4.77
2023-03-17T14:26:30.911Z,5.65
2023-03-17T14:31:33.358Z,5.37
2023-03-17T14:36:35.466Z,6.97
2023-03-17T14:41:37.552Z,7.40
2023-03-17T14:46:41.113Z,5.57
2023-03-17T14:51:43.530Z,6.43
2023-03-17T14:57:07.613Z,4.82
2023-03-17T15:02:19.240Z,7.87
2023-03-17T15:07:37.057Z,5.10
2023-03-17T15:12:39.227Z,7.87
2023-03-17T15:17:41.675Z,9.50
2023-03-17T15:22:48.547Z,5.78
2023-03-17T15:27:51.765Z,4.60
2023-03-17T15:33:01.950Z,9.95
2023-03-17T15:38:04.415Z,7.25
2023-03-17T15:43:06.846Z,10.30
2023-03-17T15:48:20.202Z,5.97
2023-03-17T15:53:22.692Z,13.07
2023-03-17T15:58:26.010Z,8.77
2023-03-17T16:03:31.395Z,7.77
2023-03-17T16:08:33.916Z,10.10
2023-03-17T16:13:41.905Z,7.05
2023-03-17T16:18:46.993Z,6.50
2023-03-17T16:23:49.684Z,4.80
2023-03-17T16:28:51.878Z,7.00
2023-03-17T16:33:54.589Z,6.13
2023-03-17T16:38:56.749Z,5.70
2023-03-17T16:44:03.327Z,21.23
2023-03-17T16:49:06.360Z,7.67
2023-03-17T16:54:09.265Z,8.23
2023-03-17T16:59:21.589Z,7.93
2023-03-17T17:04:26.495Z,11.38
2023-03-17T17:09:28.562Z,9.23
2023-03-17T17:14:30.640Z,11.82
2023-03-17T17:19:32.737Z,15.60
2023-03-17T17:24:34.870Z,10.40
2023-03-17T17:29:36.996Z,8.65
2023-03-17T17:34:39.134Z,7.85
2023-03-17T17:39:41.533Z,8.30
2023-03-17T17:44:44.250Z,7.00
2023-03-17T17:49:46.329Z,8.07
2023-03-17T17:54:48.411Z,9.25
2023-03-17T17:59:50.646Z,9.97
2023-03-17T18:04:53.587Z,11.00
2023-03-17T18:09:55.681Z,10.13
2023-03-17T18:14:57.750Z,11.90
2023-03-17T18:19:59.792Z,14.00
2023-03-17T18:25:01.996Z,13.02
2023-03-17T18:30:06.575Z,9.87
2023-03-17T18:35:15.185Z,11.20
2023-03-17T18:40:19.177Z,11.93
2023-03-17T18:45:21.553Z,9.48
2023-03-17T18:50:23.851Z,11.40
2023-03-17T18:55:26.239Z,12.57
2023-03-17T19:00:28.405Z,15.40
2023-03-17T19:05:30.879Z,12.53
2023-03-17T19:10:33.765Z,16.52
2023-03-17T19:15:36.096Z,14.07
2023-03-17T19:20:38.262Z,12.63
2023-03-17T19:25:40.327Z,14.27
2023-03-17T19:30:44.939Z,15.15
2023-03-17T19:35:56.919Z,15.10
2023-03-17T19:40:59.199Z,16.63
2023-03-17T19:46:02.233Z,18.60
2023-03-17T19:51:04.718Z,13.95
2023-03-17T19:56:07.472Z,17.70
2023-03-17T20:01:09.642Z,18.92
2023-03-17T20:06:13.112Z,20.98
2023-03-17T20:11:15.215Z,16.63
2023-03-17T20:16:17.452Z,21.00
2023-03-17T20:21:19.546Z,20.45
2023-03-17T20:26:21.759Z,19.37
2023-03-17T20:31:23.945Z,19.03
2023-03-17T20:36:27.085Z,19.15
2023-03-17T20:41:29.547Z,18.77
2023-03-17T20:46:32.163Z,21.60
